Time;durP1;ratioP1;P1;durP2;ratioP2;P2;SDS_P1;SDS_P2;PMS_P1;PMS_P2;Temp;Humidity;BMP_temperature;BMP_pressure;BME280_temperature;BME280_humidity;BME280_pressure;Samples;Min_cycle;Max_cycle;Signal;HPM_P1;HPM_P2
2022/10/12 00:02:22;;;;;;;8.88;4.15;;;;;;;7.38;88.38;102474.78;5024025;28;20033;-82
2022/10/12 00:04:47;;;;;;;5.82;3.72;;;;;;;7.35;87.62;102473.16;5022341;28;20036;-84
2022/10/12 00:07:13;;;;;;;5.53;3.13;;;;;;;7.42;88.06;102477.16;5023639;28;20112;-84
2022/10/12 00:09:38;;;;;;;5.97;2.78;;;;;;;7.35;87.48;102475.75;5023838;28;20057;-84
2022/10/12 00:12:03;;;;;;;4.55;2.50;;;;;;;7.36;87.27;102472.25;5024406;28;20029;-84
2022/10/12 00:14:29;;;;;;;5.60;2.90;;;;;;;7.27;87.40;102472.63;5023912;28;20116;-84
2022/10/12 00:16:54;;;;;;;5.88;3.05;;;;;;;7.20;86.72;102455.72;5024303;28;20033;-82
2022/10/12 00:19:20;;;;;;;5.22;2.90;;;;;;;7.18;86.49;102480.78;5022766;28;20032;-84
2022/10/12 00:21:45;;;;;;;6.75;4.07;;;;;;;7.10;86.81;102469.91;5022928;28;20563;-84
2022/10/12 00:24:10;;;;;;;7.60;3.47;;;;;;;7.08;87.06;102471.72;5024802;28;20402;-82
2022/10/12 00:26:36;;;;;;;7.38;3.35;;;;;;;7.04;87.02;102480.47;5024592;28;20125;-84
2022/10/12 00:29:03;;;;;;;9.73;4.10;;;;;;;7.00;87.49;102478.94;5024958;28;20091;-83
2022/10/12 00:31:30;;;;;;;5.65;3.72;;;;;;;6.99;87.54;102482.41;5023733;28;20024;-84
2022/10/12 00:33:59;;;;;;;7.78;4.03;;;;;;;6.92;87.65;102482.63;5022817;28;20032;-83
2022/10/12 00:36:27;;;;;;;12.40;3.88;;;;;;;6.96;87.93;102487.69;5039086;28;20334;-83
2022/10/12 00:38:54;;;;;;;8.52;4.18;;;;;;;6.98;87.70;102485.88;5024737;28;20026;-83
2022/10/12 00:41:32;;;;;;;7.70;3.50;;;;;;;7.02;87.83;102492.59;5018286;28;20764;-83
2022/10/12 00:43:58;;;;;;;9.00;3.60;;;;;;;7.00;87.74;102489.25;5012487;28;20025;-84
2022/10/12 00:46:29;;;;;;;10.07;3.75;;;;;;;7.04;88.29;102478.72;5022684;28;20052;-84
2022/10/12 00:49:13;;;;;;;8.80;4.35;;;;;;;7.06;87.93;102489.84;5023682;28;20084;-83
2022/10/12 00:51:40;;;;;;;11.13;4.10;;;;;;;7.03;88.57;102479.63;5020605;28;20045;-81
2022/10/12 00:54:11;;;;;;;9.90;4.72;;;;;;;6.99;89.41;102482.41;5024801;28;20552;-84
2022/10/12 00:56:41;;;;;;;10.20;4.25;;;;;;;7.01;89.18;102485.78;5023593;28;20033;-85
2022/10/12 00:59:12;;;;;;;8.98;4.25;;;;;;;6.93;89.04;102474.00;5024046;28;20034;-83
2022/10/12 01:01:38;;;;;;;9.18;3.97;;;;;;;6.95;89.07;102471.38;5024049;28;20032;-83
2022/10/12 01:04:05;;;;;;;7.20;3.80;;;;;;;6.91;89.27;102468.06;5026369;28;20033;-83
2022/10/12 01:06:31;;;;;;;8.32;4.25;;;;;;;7.00;88.82;102482.34;5020451;28;20079;-82
2022/10/12 01:08:57;;;;;;;9.70;4.18;;;;;;;7.00;89.10;102468.63;5021220;28;20081;-84
2022/10/12 01:11:22;;;;;;;11.43;4.57;;;;;;;7.01;89.42;102459.97;4993483;28;20431;-83
2022/10/12 01:17:13;;;;;;;10.45;4.85;;;;;;;6.91;89.78;102429.38;4995207;28;20052;-84
2022/10/12 01:19:50;;;;;;;9.07;4.18;;;;;;;7.11;89.62;102456.09;5007424;28;20064;-85
2022/10/12 01:22:18;;;;;;;9.88;4.18;;;;;;;7.08;89.91;102451.91;5010273;28;20042;-84
2022/10/12 01:25:07;;;;;;;9.63;4.40;;;;;;;7.14;90.19;102461.16;4989996;28;20068;-84
2022/10/12 01:27:34;;;;;;;;;;;;;;;7.14;88.97;102440.50;5006303;28;20391;-84
2022/10/12 01:30:08;;;;;;;8.35;4.00;;;;;;;7.17;89.39;102453.28;4999257;28;19914;-84
2022/10/12 01:32:40;;;;;;;11.63;4.18;;;;;;;7.18;89.66;102447.22;5000899;28;20423;-84
2022/10/12 01:35:24;;;;;;;8.82;4.05;;;;;;;7.19;89.93;102454.06;5003208;28;20080;-84
2022/10/12 01:38:04;;;;;;;6.72;3.58;;;;;;;7.16;89.89;102436.09;4989913;28;20033;-83
2022/10/12 01:40:39;;;;;;;8.90;4.53;;;;;;;7.15;90.33;102437.00;4998143;28;20025;-83
2022/10/12 01:43:05;;;;;;;12.65;4.05;;;;;;;7.18;90.47;102436.91;5007621;28;20040;-85
2022/10/12 01:45:30;;;;;;;12.13;4.55;;;;;;;7.15;89.68;102429.28;5008028;28;20421;-82
2022/10/12 01:47:56;;;;;;;7.82;4.10;;;;;;;7.15;89.50;102426.69;5013041;28;20032;-84
2022/10/12 01:50:28;;;;;;;8.32;3.67;;;;;;;7.15;90.00;102418.97;5007303;28;20433;-82
2022/10/12 01:53:19;;;;;;;8.13;4.05;;;;;;;7.24;90.15;102434.06;4989449;28;20030;-84
2022/10/12 01:55:44;;;;;;;6.75;3.40;;;;;;;7.24;89.15;102430.66;4990828;28;20112;-84
2022/10/12 01:58:31;;;;;;;8.60;3.60;;;;;;;7.24;89.55;102428.91;5011399;28;20179;-84
2022/10/12 02:01:21;;;;;;;6.55;3.40;;;;;;;7.22;89.89;102422.13;5008613;28;20029;-83
2022/10/12 02:03:54;;;;;;;8.65;3.63;;;;;;;7.17;89.46;102419.75;5012741;28;20492;-83
2022/10/12 02:06:22;;;;;;;7.53;4.07;;;;;;;7.15;90.28;102426.69;4999937;28;20040;-84
2022/10/12 02:08:58;;;;;;;8.80;3.85;;;;;;;7.16;89.49;102424.03;5011707;28;20046;-84
2022/10/12 02:11:25;;;;;;;6.90;3.53;;;;;;;7.07;89.22;102402.97;5024968;28;20473;-84
2022/10/12 02:13:58;;;;;;;7.97;3.70;;;;;;;7.14;89.26;102420.69;5022979;28;20044;-84
2022/10/12 02:16:30;;;;;;;7.25;3.50;;;;;;;7.11;90.18;102409.66;5025896;28;20030;-84
2022/10/12 02:18:57;;;;;;;11.38;4.32;;;;;;;7.07;90.23;102408.13;5024297;28;20103;-84
2022/10/12 02:21:31;;;;;;;10.93;4.10;;;;;;;7.11;90.25;102414.81;5025433;28;20472;-84
2022/10/12 02:24:00;;;;;;;9.38;4.25;;;;;;;7.04;90.31;102409.06;5019039;28;20037;-83
2022/10/12 02:26:27;;;;;;;8.20;4.40;;;;;;;7.04;90.13;102409.06;5024467;28;20033;-84
2022/10/12 02:28:53;;;;;;;8.30;4.18;;;;;;;7.05;89.58;102410.75;5022222;28;20064;-83
2022/10/12 02:31:34;;;;;;;9.00;3.92;;;;;;;7.04;90.15;102408.25;5024131;28;20013;-84
2022/10/12 02:34:40;;;;;;;;;;;;;;;;;;;;;
2022/10/12 02:37:12;;;;;;;8.73;4.35;;;;;;;6.88;90.19;102392.53;5026382;28;20039;-81
2022/10/12 02:39:49;;;;;;;9.50;4.28;;;;;;;6.88;90.15;102388.25;5025969;28;20029;-83
2022/10/12 02:42:21;;;;;;;9.48;4.45;;;;;;;6.87;91.03;102396.88;5024237;28;20033;-83
2022/10/12 02:44:47;;;;;;;7.05;3.70;;;;;;;6.92;90.46;102394.94;5025253;28;20025;-83
2022/10/12 02:47:14;;;;;;;7.63;4.20;;;;;;;6.89;90.58;102389.94;5025910;28;20025;-83
2022/10/12 02:49:43;;;;;;;11.43;4.47;;;;;;;6.87;91.01;102393.44;5024619;28;20199;-83
2022/10/12 02:52:09;;;;;;;9.48;3.95;;;;;;;6.87;90.73;102391.72;5025342;28;20066;-82
2022/10/12 02:54:35;;;;;;;9.63;3.80;;;;;;;6.89;90.76;102391.66;5026034;28;20596;-83
2022/10/12 02:57:00;;;;;;;9.13;3.60;;;;;;;6.92;90.57;102392.38;5024647;28;20037;-83
2022/10/12 02:59:26;;;;;;;10.32;3.90;;;;;;;6.89;90.69;102389.94;5023835;28;20613;-83
2022/10/12 03:01:51;;;;;;;9.85;3.85;;;;;;;6.88;90.87;102392.53;5025453;28;20135;-83
2022/10/12 03:04:16;;;;;;;13.30;4.18;;;;;;;6.79;90.88;102368.00;5025264;28;20401;-79
2022/10/12 03:06:42;;;;;;;10.73;4.63;;;;;;;6.79;90.97;102370.56;5038767;28;20029;-83
2022/10/12 03:09:08;;;;;;;8.95;4.07;;;;;;;6.83;90.57;102385.03;5023672;28;20052;-83
2022/10/12 03:11:33;;;;;;;8.93;4.00;;;;;;;6.82;90.47;102383.31;5025023;28;20109;-83
2022/10/12 03:13:59;;;;;;;10.30;4.55;;;;;;;6.69;91.22;102361.53;5023081;28;20041;-82
2022/10/12 03:16:25;;;;;;;9.68;3.90;;;;;;;6.68;90.75;102365.00;5025063;28;20116;-83
2022/10/12 03:18:50;;;;;;;8.52;4.05;;;;;;;6.71;90.10;102375.22;5024784;28;20037;-83
2022/10/12 03:21:16;;;;;;;7.30;3.97;;;;;;;6.65;90.75;102370.28;5025147;28;20025;-82
2022/10/12 03:23:41;;;;;;;7.93;3.95;;;;;;;6.64;90.23;102371.19;5021052;28;20241;-84
2022/10/12 03:26:07;;;;;;;8.73;3.60;;;;;;;6.61;90.08;102374.72;5025241;28;20029;-81
2022/10/12 03:28:32;;;;;;;7.18;3.85;;;;;;;6.61;89.92;102376.47;5022334;28;20033;-81
2022/10/12 03:30:58;;;;;;;7.93;3.78;;;;;;;6.55;90.74;102369.00;5025829;28;20033;-82
2022/10/12 03:33:24;;;;;;;12.13;3.72;;;;;;;6.57;90.07;102359.44;5024161;28;20116;-83
2022/10/12 03:35:50;;;;;;;8.32;4.18;;;;;;;6.57;90.58;102372.34;5023788;28;20048;-83
2022/10/12 03:38:16;;;;;;;6.43;3.85;;;;;;;6.59;90.94;102380.84;5019279;28;20517;-83
2022/10/12 03:40:42;;;;;;;8.27;3.63;;;;;;;6.59;90.91;102375.69;5024581;28;20532;-81
2022/10/12 03:43:07;;;;;;;10.65;4.30;;;;;;;6.56;90.97;102370.66;5024535;28;20053;-83
2022/10/12 03:45:33;;;;;;;10.75;4.20;;;;;;;6.62;90.48;102367.84;5024438;28;20021;-83
2022/10/12 03:47:59;;;;;;;7.70;4.05;;;;;;;6.64;90.24;102377.16;5024351;28;20182;-82
2022/10/12 03:50:25;;;;;;;11.25;3.85;;;;;;;6.65;90.45;102372.84;5023987;28;20026;-83
2022/10/12 03:52:50;;;;;;;7.93;3.35;;;;;;;6.55;90.41;102361.25;5022929;28;20021;-82
2022/10/12 03:55:15;;;;;;;8.68;3.35;;;;;;;6.53;90.56;102371.59;5024226;28;20104;-83
2022/10/12 03:57:41;;;;;;;7.25;3.30;;;;;;;6.52;90.73;102364.78;5022444;28;20032;-83
2022/10/12 04:00:07;;;;;;;5.65;3.00;;;;;;;6.56;90.25;102378.41;5024469;28;20029;-82
2022/10/12 04:02:32;;;;;;;6.40;3.38;;;;;;;6.45;90.35;102362.50;5020682;28;20026;-83
2022/10/12 04:04:58;;;;;;;5.82;3.25;;;;;;;6.48;89.63;102376.13;5024542;28;20028;-81
2022/10/12 04:07:23;;;;;;;7.13;3.53;;;;;;;6.46;90.18;102379.66;5024209;28;20032;-82
2022/10/12 04:09:49;;;;;;;7.30;3.53;;;;;;;6.34;89.76;102371.50;5023965;28;20065;-82
2022/10/12 04:12:14;;;;;;;10.75;3.80;;;;;;;6.33;90.03;102358.69;5039712;28;20025;-83
2022/10/12 04:14:40;;;;;;;7.93;3.38;;;;;;;6.31;90.17;102356.19;5024534;28;20061;-82
2022/10/12 04:17:05;;;;;;;8.60;4.10;;;;;;;6.22;89.90;102348.78;5021733;28;20464;-81
2022/10/12 04:19:31;;;;;;;6.55;3.42;;;;;;;6.29;90.08;102357.94;5021461;28;20097;-81
2022/10/12 04:21:56;;;;;;;6.10;3.22;;;;;;;6.31;90.08;102361.34;5024588;28;20036;-83
2022/10/12 04:24:21;;;;;;;6.40;3.20;;;;;;;6.30;89.77;102358.78;5025599;28;20399;-82
2022/10/12 04:26:47;;;;;;;8.43;3.33;;;;;;;6.20;89.78;102348.03;5024962;28;20488;-82
2022/10/12 04:29:13;;;;;;;7.95;4.00;;;;;;;6.23;90.45;102362.50;5026648;28;20029;-83
2022/10/12 04:31:39;;;;;;;9.93;3.78;;;;;;;6.12;90.20;102348.31;5025464;28;20025;-82
2022/10/12 04:34:04;;;;;;;8.63;3.70;;;;;;;6.19;90.45;102359.19;5026532;28;20033;-83
2022/10/12 04:36:30;;;;;;;5.90;3.38;;;;;;;6.13;90.41;102343.97;5023737;28;20025;-81
2022/10/12 04:38:55;;;;;;;9.27;3.47;;;;;;;6.12;90.59;102350.03;5043729;28;20029;-81
2022/10/12 04:41:21;;;;;;;10.18;3.70;;;;;;;6.07;89.91;102346.78;5043634;28;20039;-82
2022/10/12 04:43:46;;;;;;;10.00;3.78;;;;;;;6.11;90.27;102363.81;5027923;28;20033;-81
2022/10/12 04:46:11;;;;;;;15.30;3.88;;;;;;;6.04;89.89;102357.22;5028724;28;20260;-83
2022/10/12 04:48:37;;;;;;;15.13;3.47;;;;;;;6.08;90.17;102364.78;5027283;28;20116;-82
2022/10/12 04:51:03;;;;;;;8.05;3.60;;;;;;;6.06;90.06;102365.72;5029675;28;20033;-82
2022/10/12 04:53:29;;;;;;;10.00;4.07;;;;;;;6.02;90.49;102356.44;5028883;28;20128;-81
2022/10/12 04:55:54;;;;;;;5.75;3.47;;;;;;;6.06;90.25;102360.59;5029417;28;20513;-82
2022/10/12 04:58:19;;;;;;;9.45;3.55;;;;;;;6.04;90.25;102357.22;5027155;28;20116;-82
2022/10/12 05:00:47;;;;;;;5.55;3.15;;;;;;;6.06;90.30;102361.41;5028693;28;20027;-82
2022/10/12 05:03:13;;;;;;;7.70;3.55;;;;;;;5.98;90.02;102357.47;5042903;28;20075;-84
2022/10/12 05:05:38;;;;;;;7.50;4.65;;;;;;;6.02;90.01;102364.16;5029255;28;20111;-83
2022/10/12 05:08:04;;;;;;;6.30;3.35;;;;;;;5.96;90.13;102354.09;5030651;28;20141;-82
2022/10/12 05:10:30;;;;;;;7.32;3.55;;;;;;;5.97;89.20;102366.09;5027756;28;20057;-81
2022/10/12 05:12:55;;;;;;;7.13;3.35;;;;;;;5.88;90.00;102356.94;5028282;28;20033;-82
2022/10/12 05:15:21;;;;;;;7.13;3.75;;;;;;;5.85;90.07;102352.75;5026776;28;20506;-82
2022/10/12 05:17:46;;;;;;;9.30;3.25;;;;;;;5.88;89.51;102361.25;5026982;28;20443;-82
2022/10/12 05:20:11;;;;;;;5.85;3.25;;;;;;;5.77;89.43;102344.44;5027313;28;20040;-82
2022/10/12 05:22:37;;;;;;;6.28;3.00;;;;;;;5.75;90.04;102353.16;5027236;28;20026;-81
2022/10/12 05:25:03;;;;;;;7.32;3.13;;;;;;;5.76;90.10;102352.25;5025281;28;20079;-82
2022/10/12 05:27:29;;;;;;;7.13;3.45;;;;;;;5.75;89.52;102353.16;5025206;28;20021;-80
2022/10/12 05:29:55;;;;;;;8.23;3.28;;;;;;;5.73;89.55;102342.88;5026875;28;20697;-83
2022/10/12 05:32:20;;;;;;;8.25;3.65;;;;;;;5.70;89.94;102345.59;5024804;28;20032;-82
2022/10/12 05:34:46;;;;;;;5.22;2.90;;;;;;;5.69;90.15;102341.34;5042252;28;20493;-82
2022/10/12 05:37:11;;;;;;;5.22;3.15;;;;;;;5.69;89.33;102341.34;5026761;28;20068;-83
2022/10/12 05:39:36;;;;;;;5.57;2.80;;;;;;;5.71;90.26;102346.41;5026492;28;20168;-83
2022/10/12 05:42:03;;;;;;;6.18;2.90;;;;;;;5.59;90.15;102329.69;5027249;28;20033;-83
2022/10/12 05:44:28;;;;;;;6.47;3.20;;;;;;;5.63;90.42;102346.72;5026770;28;20025;-83
2022/10/12 05:46:53;;;;;;;7.97;3.03;;;;;;;5.62;90.24;102345.03;5027613;28;20373;-82
2022/10/12 05:49:19;;;;;;;4.72;2.40;;;;;;;5.62;90.53;102344.16;5021711;28;20171;-82
2022/10/12 05:51:44;;;;;;;4.13;2.72;;;;;;;5.67;90.76;102343.09;5027249;28;20105;-83
2022/10/12 05:54:09;;;;;;;6.50;3.10;;;;;;;5.68;90.60;102349.97;5024797;28;20056;-82
2022/10/12 05:56:35;;;;;;;5.25;2.88;;;;;;;5.56;90.67;102340.94;5026580;28;20024;-82
2022/10/12 05:59:00;;;;;;;6.78;2.65;;;;;;;5.57;90.45;102341.78;5024983;28;20022;-82
2022/10/12 06:01:25;;;;;;;7.80;2.70;;;;;;;5.61;90.66;102348.47;5026137;28;20032;-84
2022/10/12 06:03:53;;;;;;;4.95;2.53;;;;;;;5.64;90.63;102353.53;5019749;28;20396;-82
2022/10/12 06:06:18;;;;;;;6.95;2.97;;;;;;;5.65;90.88;102354.38;5023308;28;20045;-82
2022/10/12 06:08:44;;;;;;;5.13;2.70;;;;;;;5.61;90.87;102343.34;5025110;28;20033;-83
2022/10/12 06:11:09;;;;;;;5.90;2.88;;;;;;;5.59;91.32;102340.81;5022429;28;20182;-80
2022/10/12 06:13:34;;;;;;;6.55;2.63;;;;;;;5.60;91.05;102333.94;5023909;28;20381;-81
2022/10/12 06:16:00;;;;;;;6.05;2.85;;;;;;;5.61;91.53;102343.34;5025186;28;20426;-82
2022/10/12 06:18:25;;;;;;;6.32;2.67;;;;;;;5.63;91.29;102344.13;5025492;28;20029;-83
2022/10/12 06:20:52;;;;;;;6.63;3.03;;;;;;;5.60;91.48;102339.91;5024343;28;20470;-83
2022/10/12 06:23:19;;;;;;;8.05;3.00;;;;;;;5.64;91.49;102347.53;5021117;28;20567;-87
2022/10/12 06:25:46;;;;;;;5.15;2.90;;;;;;;5.64;91.57;102343.25;5024086;28;20065;-82
2022/10/12 06:28:12;;;;;;;6.05;3.00;;;;;;;5.60;91.60;102339.91;5012055;28;20037;-82
2022/10/12 06:30:37;;;;;;;8.80;3.88;;;;;;;5.63;91.85;102333.84;5023916;28;20444;-86
2022/10/12 06:33:03;;;;;;;8.25;3.50;;;;;;;5.70;92.07;102343.00;5024566;28;20413;-84
2022/10/12 06:35:29;;;;;;;7.32;3.40;;;;;;;5.75;92.23;102330.81;5023481;28;20473;-83
2022/10/12 06:37:54;;;;;;;6.47;3.33;;;;;;;5.76;92.53;102326.50;5025664;28;20358;-83
2022/10/12 06:40:19;;;;;;;9.10;3.58;;;;;;;5.80;92.36;102328.91;5025751;28;20897;-83
2022/10/12 06:42:45;;;;;;;9.88;3.83;;;;;;;5.88;92.58;102345.78;5026077;28;20060;-83
2022/10/12 06:45:11;;;;;;;8.40;3.67;;;;;;;5.92;93.02;102347.41;5025276;28;20047;-83
2022/10/12 06:47:36;;;;;;;10.98;3.70;;;;;;;5.93;92.92;102343.91;5025742;28;20065;-83
2022/10/12 06:50:02;;;;;;;7.82;3.50;;;;;;;5.93;92.59;102333.63;5026200;28;20037;-84
2022/10/12 06:52:27;;;;;;;8.75;4.70;;;;;;;5.96;92.88;102338.63;5025064;28;20533;-84
2022/10/12 06:54:52;;;;;;;9.52;4.72;;;;;;;5.96;93.65;102328.34;5024715;28;20155;-83
2022/10/12 06:57:18;;;;;;;10.32;4.25;;;;;;;6.02;92.90;102333.25;5023328;28;20564;-83
2022/10/12 06:59:43;;;;;;;10.90;4.28;;;;;;;6.06;93.09;102324.53;5023379;28;20060;-84
2022/10/12 07:02:10;;;;;;;7.28;4.07;;;;;;;6.12;93.44;102340.56;5025579;28;20033;-83
2022/10/12 07:04:35;;;;;;;7.90;4.10;;;;;;;6.10;92.96;102323.50;5024732;28;20105;-81
2022/10/12 07:07:00;;;;;;;10.93;4.00;;;;;;;6.16;93.10;102331.00;5025435;28;20112;-83
2022/10/12 07:09:26;;;;;;;9.68;4.32;;;;;;;6.22;93.03;102341.06;5022833;28;20053;-84
2022/10/12 07:11:51;;;;;;;8.50;4.53;;;;;;;6.24;92.91;102339.25;5024976;28;20025;-83
2022/10/12 07:14:16;;;;;;;10.88;4.32;;;;;;;6.27;92.30;102323.69;5024540;28;20036;-84
2022/10/12 07:16:42;;;;;;;13.90;4.68;;;;;;;6.20;92.10;102317.09;5023428;28;20520;-83
2022/10/12 07:19:07;;;;;;;12.85;4.97;;;;;;;6.26;92.29;102332.31;5025202;28;20521;-84
2022/10/12 07:21:32;;;;;;;10.23;4.72;;;;;;;6.30;92.17;102328.69;5023145;28;20461;-81
2022/10/12 07:23:58;;;;;;;10.00;4.35;;;;;;;6.28;92.23;102309.91;5024449;28;20112;-84
2022/10/12 07:26:23;;;;;;;12.35;4.72;;;;;;;6.27;92.70;102313.38;5022789;28;20040;-83
2022/10/12 07:28:48;;;;;;;9.80;4.40;;;;;;;6.29;91.80;102316.72;5024428;28;20033;-83
2022/10/12 07:31:14;;;;;;;8.70;4.82;;;;;;;6.33;92.25;102323.44;5024215;28;20033;-82
2022/10/12 07:33:39;;;;;;;9.73;4.88;;;;;;;6.31;91.64;102314.94;5024003;28;20033;-83
2022/10/12 07:36:05;;;;;;;8.50;4.68;;;;;;;6.31;91.31;102309.78;5025157;28;20063;-81
2022/10/12 07:38:31;;;;;;;11.00;5.70;;;;;;;6.38;91.66;102326.69;5023364;28;20037;-82
2022/10/12 07:41:01;;;;;;;12.80;5.35;;;;;;;6.34;91.71;102319.97;5024713;28;20453;-81
2022/10/12 07:43:28;;;;;;;14.18;5.65;;;;;;;6.36;90.77;102325.88;5024188;28;20032;-82
2022/10/12 07:45:53;;;;;;;14.93;5.88;;;;;;;6.41;91.68;102330.03;5024993;28;20029;-83
2022/10/12 07:48:19;;;;;;;10.32;5.30;;;;;;;6.43;91.07;102333.41;5021666;28;20189;-81
2022/10/12 07:50:44;;;;;;;8.98;5.70;;;;;;;6.39;90.73;102328.34;5018343;28;20552;-83
2022/10/12 07:53:10;;;;;;;14.38;6.05;;;;;;;6.39;91.63;102336.09;5024081;28;20548;-83
2022/10/12 07:55:35;;;;;;;12.60;7.40;;;;;;;6.46;91.65;102333.25;5023926;28;20037;-83
2022/10/12 07:58:01;;;;;;;13.90;6.40;;;;;;;6.49;91.73;102338.31;5024897;28;20017;-83
2022/10/12 08:00:27;;;;;;;15.45;6.72;;;;;;;6.56;91.77;102344.88;5024646;28;20075;-83
2022/10/12 08:02:52;;;;;;;16.10;7.13;;;;;;;6.53;92.16;102324.38;5023867;28;20036;-83
2022/10/12 08:05:20;;;;;;;12.07;5.72;;;;;;;6.59;91.72;102335.25;5024028;28;20037;-81
2022/10/12 08:07:46;;;;;;;15.70;7.95;;;;;;;6.66;92.21;102346.19;5023812;28;20037;-82
2022/10/12 08:10:12;;;;;;;14.55;7.93;;;;;;;6.64;92.22;102327.34;5022610;28;20053;-82
2022/10/12 08:12:37;;;;;;;11.70;6.53;;;;;;;6.73;92.39;102332.16;5023939;28;20029;-82
2022/10/12 08:15:03;;;;;;;16.92;7.45;;;;;;;6.76;91.93;102326.84;5023934;28;20360;-82
2022/10/12 08:17:28;;;;;;;14.07;8.02;;;;;;;6.81;92.06;102330.06;5016691;28;20104;-83
2022/10/12 08:19:53;;;;;;;18.02;8.20;;;;;;;6.89;92.08;102337.50;5022792;28;20461;-82
2022/10/12 08:22:19;;;;;;;15.15;8.45;;;;;;;6.92;92.27;102335.63;5021385;28;20605;-83
2022/10/12 08:24:44;;;;;;;18.27;8.75;;;;;;;7.03;91.76;102344.66;5023614;28;20473;-82
2022/10/12 08:27:09;;;;;;;13.63;7.85;;;;;;;7.03;92.33;102335.16;5023943;28;20084;-81
2022/10/12 08:29:35;;;;;;;15.75;7.88;;;;;;;7.11;92.06;102340.88;5023719;28;20530;-83
2022/10/12 08:32:00;;;;;;;12.73;7.30;;;;;;;7.15;91.99;102344.13;5039556;28;20071;-82
2022/10/12 08:34:26;;;;;;;12.25;6.78;;;;;;;7.15;92.26;102338.97;5021644;28;20417;-82
2022/10/12 08:36:51;;;;;;;16.85;8.65;;;;;;;7.23;91.38;102347.25;5021079;28;20075;-82
2022/10/12 08:39:17;;;;;;;16.08;8.35;;;;;;;7.25;92.47;102345.41;5016766;28;20464;-81
2022/10/12 08:42:02;;;;;;;18.98;9.55;;;;;;;7.29;92.07;102331.47;5016484;28;20033;-82
2022/10/12 08:44:46;;;;;;;18.05;8.98;;;;;;;7.34;91.90;102324.38;5022235;28;20136;-82
2022/10/12 08:47:17;;;;;;;15.75;8.98;;;;;;;7.49;91.86;102343.50;5023788;28;20044;-81
2022/10/12 08:49:44;;;;;;;13.68;8.90;;;;;;;7.56;92.07;102338.91;5023906;28;20075;-82
2022/10/12 08:52:47;;;;;;;15.88;8.98;;;;;;;7.68;92.36;102340.91;5024226;28;20021;-82
2022/10/12 08:55:35;;;;;;;16.67;8.27;;;;;;;7.73;91.55;102332.06;5022538;28;20033;-83
2022/10/12 08:58:01;;;;;;;13.83;9.17;;;;;;;7.74;91.67;102332.91;5018646;28;20128;-82
2022/10/12 09:00:29;;;;;;;21.52;9.80;;;;;;;7.87;91.36;102339.19;5020828;28;20029;-83
2022/10/12 09:03:12;;;;;;;17.50;9.45;;;;;;;7.96;91.41;102338.75;5023654;28;20132;-82
2022/10/12 09:05:53;;;;;;;16.25;9.50;;;;;;;7.99;91.21;102328.28;5023438;28;20053;-82
2022/10/12 09:08:43;;;;;;;16.10;9.80;;;;;;;8.11;90.35;102341.53;5022802;28;20025;-82
2022/10/12 09:11:17;;;;;;;14.93;9.40;;;;;;;8.17;90.36;102343.84;5023407;28;20037;-81
2022/10/12 09:14:12;;;;;;;21.88;11.77;;;;;;;8.22;90.46;102339.28;5022129;28;20584;-82
2022/10/12 09:16:45;;;;;;;17.25;11.45;;;;;;;8.27;90.52;102327.00;5022754;28;20021;-82
2022/10/12 09:19:25;;;;;;;18.73;10.93;;;;;;;8.32;90.55;102327.63;5020652;28;20053;-82
2022/10/12 09:21:51;;;;;;;24.70;11.40;;;;;;;8.39;90.25;102331.59;5020966;28;20041;-83
2022/10/12 09:24:24;;;;;;;17.50;9.85;;;;;;;8.58;90.19;102343.63;5025680;28;20029;-82
2022/10/12 09:26:53;;;;;;;16.85;9.77;;;;;;;8.65;89.60;102342.41;5024931;28;20216;-83
2022/10/12 09:29:32;;;;;;;19.27;11.25;;;;;;;8.74;89.49;102347.16;5025030;28;20108;-82
2022/10/12 09:32:10;;;;;;;19.95;12.85;;;;;;;8.85;89.29;102350.03;5024536;28;20029;-82
2022/10/12 09:34:35;;;;;;;20.35;11.20;;;;;;;8.86;88.73;102327.59;5026555;28;20060;-80
2022/10/12 09:37:02;;;;;;;18.25;12.70;;;;;;;8.97;88.42;102333.88;5026782;28;20025;-83
2022/10/12 09:39:34;;;;;;;15.93;10.18;;;;;;;9.13;88.21;102343.47;5026935;28;20687;-83
2022/10/12 09:41:59;;;;;;;17.27;10.40;;;;;;;9.23;88.00;102336.88;5027062;28;20558;-83
2022/10/12 09:44:35;;;;;;;17.58;10.57;;;;;;;9.36;86.92;102335.34;5024260;28;20100;-80
2022/10/12 09:47:06;;;;;;;16.85;10.88;;;;;;;9.39;86.01;102323.97;5027037;28;20112;-83
2022/10/12 09:49:46;;;;;;;18.13;10.15;;;;;;;9.56;86.02;102327.34;5024691;28;20025;-83
2022/10/12 09:52:16;;;;;;;16.27;9.55;;;;;;;9.60;86.04;102309.91;5027036;28;20025;-82
2022/10/12 09:54:46;;;;;;;18.52;10.35;;;;;;;9.79;85.86;102323.53;5026888;28;20022;-83
2022/10/12 09:57:24;;;;;;;18.38;10.70;;;;;;;9.81;84.80;102310.50;5026275;28;20422;-81
2022/10/12 09:59:50;;;;;;;17.52;11.00;;;;;;;10.03;85.72;102320.50;5023644;28;20033;-83
2022/10/12 10:02:21;;;;;;;19.55;12.80;;;;;;;10.13;85.26;102329.44;5025880;28;20025;-81
2022/10/12 10:04:48;;;;;;;16.17;10.90;;;;;;;10.14;84.38;102322.50;5024792;28;20112;-83
2022/10/12 10:07:26;;;;;;;18.50;10.77;;;;;;;10.21;85.13;102329.03;5023917;28;20029;-81
2022/10/12 10:10:15;;;;;;;24.85;12.00;;;;;;;10.26;84.08;102332.22;5024686;28;20045;-83
2022/10/12 10:12:48;;;;;;;18.10;11.43;;;;;;;10.30;84.34;102323.34;5023360;28;20242;-83
2022/10/12 10:15:24;;;;;;;19.08;12.07;;;;;;;10.30;83.75;102310.38;5024682;28;20037;-82
2022/10/12 10:18:01;;;;;;;17.75;11.57;;;;;;;10.38;83.62;102297.84;5024588;28;20021;-82
2022/10/12 10:20:40;;;;;;;17.92;11.18;;;;;;;10.57;83.85;102307.97;5026123;28;20034;-84
2022/10/12 10:23:05;;;;;;;;;;;;;;;10.67;84.79;102305.66;5025852;28;20028;-83
2022/10/12 10:25:31;;;;;;;17.75;11.27;;;;;;;10.66;82.62;102294.47;5025151;28;20316;-81
2022/10/12 10:28:09;;;;;;;20.02;13.27;;;;;;;10.77;82.59;102296.44;5025222;28;20029;-80
2022/10/12 10:30:35;;;;;;;19.83;12.18;;;;;;;10.82;82.09;102297.81;5024632;28;20029;-82
2022/10/12 10:33:12;;;;;;;20.33;12.57;;;;;;;10.93;82.07;102301.56;5024446;28;20033;-82
2022/10/12 10:35:37;;;;;;;20.80;13.55;;;;;;;11.05;82.08;102306.00;5020999;28;20033;-83
2022/10/12 10:38:03;;;;;;;21.98;13.75;;;;;;;11.12;81.22;102297.75;5023866;28;20638;-83
2022/10/12 10:40:31;;;;;;;19.80;13.43;;;;;;;11.17;80.88;102295.72;5025630;28;20112;-82
2022/10/12 10:43:05;;;;;;;17.98;11.60;;;;;;;11.31;80.50;102304.44;5022579;28;20116;-83
2022/10/12 10:45:53;;;;;;;23.00;14.18;;;;;;;11.46;81.68;102305.25;5022717;28;20034;-83
2022/10/12 10:48:23;;;;;;;19.25;12.15;;;;;;;11.53;80.39;102310.00;5022180;28;20482;-83
2022/10/12 10:50:55;;;;;;;19.42;14.73;;;;;;;11.60;79.27;102298.28;5022137;28;20111;-83
2022/10/12 10:53:23;;;;;;;20.38;16.30;;;;;;;11.69;79.51;102308.09;5020789;28;20247;-83
2022/10/12 10:55:51;;;;;;;19.05;13.93;;;;;;;11.83;79.39;102303.84;5023514;28;20069;-83
2022/10/12 10:58:42;;;;;;;18.58;14.15;;;;;;;11.98;79.79;102300.25;5021587;28;20084;-83
2022/10/12 11:01:30;;;;;;;19.58;16.63;;;;;;;12.12;78.78;102304.56;5022505;28;20037;-82
2022/10/12 11:03:59;;;;;;;22.07;15.77;;;;;;;12.07;77.23;102296.22;5034265;28;20478;-84
2022/10/12 11:06:39;;;;;;;23.60;16.63;;;;;;;12.14;77.59;102282.72;5022069;28;20155;-83
2022/10/12 11:09:19;;;;;;;19.63;15.15;;;;;;;12.33;78.35;102286.72;5020900;28;20099;-83
2022/10/12 11:11:54;;;;;;;20.30;13.75;;;;;;;12.42;77.82;102281.75;5019624;28;20426;-83
2022/10/12 11:14:24;;;;;;;26.10;15.32;;;;;;;12.50;76.23;102278.63;5020586;28;20631;-83
2022/10/12 11:17:02;;;;;;;22.20;16.88;;;;;;;12.63;76.53;102274.31;5025070;28;20033;-83
2022/10/12 11:19:48;;;;;;;21.15;16.65;;;;;;;12.75;76.27;102278.69;5020923;28;20021;-84
2022/10/12 11:22:27;;;;;;;21.90;17.00;;;;;;;12.74;74.18;102274.41;5023134;28;20029;-83
2022/10/12 11:25:22;;;;;;;22.33;17.35;;;;;;;12.73;74.93;102262.34;5021739;28;20044;-83
2022/10/12 11:27:49;;;;;;;22.52;17.50;;;;;;;12.82;74.15;102252.22;5024024;28;20037;-82
2022/10/12 11:30:21;;;;;;;19.92;17.58;;;;;;;12.79;73.90;102242.00;5024319;28;20473;-83
2022/10/12 11:32:48;;;;;;;23.50;17.75;;;;;;;12.93;73.60;102239.31;5021350;28;20063;-82
2022/10/12 11:35:25;;;;;;;20.90;17.83;;;;;;;12.95;73.11;102232.19;5020994;28;20564;-83
2022/10/12 11:38:04;;;;;;;21.58;16.73;;;;;;;12.93;72.63;102208.88;5018451;28;20091;-82
2022/10/12 11:40:41;;;;;;;21.52;17.02;;;;;;;13.19;72.74;102209.69;5015390;28;20044;-82
2022/10/12 11:43:14;;;;;;;21.85;16.85;;;;;;;13.17;72.88;102206.31;5016996;28;20021;-83